createdAt,value
2018-04-14T00:01:35.794Z,23.00
2018-04-14T00:04:06.275Z,24.60
2018-04-14T00:06:36.797Z,20.67
2018-04-14T00:09:07.629Z,21.90
2018-04-14T00:11:39.761Z,21.80
2018-04-14T00:14:10.694Z,23.17
2018-04-14T00:16:41.249Z,23.37
2018-04-14T00:19:11.965Z,22.23
2018-04-14T00:21:42.978Z,23.30
2018-04-14T00:24:13.745Z,23.50
2018-04-14T00:26:44.171Z,24.00
2018-04-14T00:29:14.811Z,22.97
2018-04-14T00:31:45.551Z,24.97
2018-04-14T00:34:16.110Z,23.60
2018-04-14T00:36:46.710Z,23.30
2018-04-14T00:42:18.064Z,24.37
2018-04-14T00:44:48.329Z,24.70
2018-04-14T00:47:19.581Z,25.63
2018-04-14T00:49:50.337Z,25.20
2018-04-14T00:54:56.758Z,24.60
2018-04-14T00:57:28.665Z,25.27
2018-04-14T00:59:59.405Z,29.40
2018-04-14T01:02:29.754Z,26.87
2018-04-14T01:05:00.082Z,27.13
2018-04-14T01:07:30.558Z,24.73
2018-04-14T01:10:01.323Z,26.03
2018-04-14T01:12:31.918Z,25.00
2018-04-14T01:15:02.209Z,25.40
2018-04-14T01:17:32.697Z,27.40
2018-04-14T01:20:03.718Z,25.40
2018-04-14T01:22:34.448Z,25.00
2018-04-14T01:25:04.870Z,25.23
2018-04-14T01:27:35.275Z,27.00
2018-04-14T01:30:05.570Z,26.50
2018-04-14T01:32:36.753Z,28.20
2018-04-14T01:35:07.604Z,25.87
2018-04-14T01:37:38.085Z,26.13
2018-04-14T01:40:08.345Z,29.20
2018-04-14T01:42:39.430Z,28.33
2018-04-14T01:45:09.713Z,27.93
2018-04-14T01:47:40.197Z,29.50
2018-04-14T01:50:10.530Z,32.00
2018-04-14T01:52:40.998Z,28.80
2018-04-14T01:55:12.305Z,26.53
2018-04-14T01:57:43.117Z,29.73
2018-04-14T02:00:13.519Z,30.50
2018-04-14T02:02:43.874Z,30.90
2018-04-14T02:05:14.357Z,29.67
2018-04-14T02:07:45.058Z,28.17
2018-04-14T02:10:15.621Z,29.20
2018-04-14T02:12:47.590Z,29.57
2018-04-14T02:15:19.271Z,29.87
2018-04-14T02:17:49.782Z,29.50
2018-04-14T02:20:20.286Z,28.97
2018-04-14T02:22:50.882Z,29.37
2018-04-14T02:25:21.542Z,29.53
2018-04-14T02:27:52.240Z,29.33
2018-04-14T02:30:22.553Z,29.03
2018-04-14T02:32:53.826Z,30.57
2018-04-14T02:35:24.531Z,30.03
2018-04-14T02:37:54.809Z,29.13
2018-04-14T02:40:25.129Z,30.90
2018-04-14T02:42:56.050Z,29.83
2018-04-14T02:45:26.414Z,27.77
2018-04-14T02:47:57.092Z,27.23
2018-04-14T02:50:27.754Z,29.40
2018-04-14T02:52:58.703Z,27.17
2018-04-14T02:55:29.062Z,26.87
2018-04-14T02:57:59.911Z,27.47
2018-04-14T03:00:30.460Z,25.57
2018-04-14T03:03:00.821Z,26.73
2018-04-14T03:05:31.873Z,26.27
2018-04-14T03:08:02.782Z,28.57
2018-04-14T03:10:33.343Z,26.47
2018-04-14T03:13:03.831Z,25.83
2018-04-14T03:15:34.742Z,25.63
2018-04-14T03:18:05.073Z,27.50
2018-04-14T03:20:35.622Z,23.23
2018-04-14T03:23:06.632Z,27.57
2018-04-14T03:25:37.262Z,26.23
2018-04-14T03:28:07.653Z,25.87
2018-04-14T03:30:38.612Z,26.50
2018-04-14T03:33:09.200Z,26.10
2018-04-14T03:35:39.579Z,23.50
2018-04-14T03:38:09.950Z,26.20
2018-04-14T03:40:41.001Z,26.67
2018-04-14T03:43:11.604Z,27.20
2018-04-14T03:45:42.583Z,27.07
2018-04-14T03:48:13.979Z,27.20
2018-04-14T03:50:44.549Z,27.80
2018-04-14T03:53:14.870Z,27.90
2018-04-14T03:55:45.579Z,28.60
2018-04-14T03:58:16.009Z,28.07
2018-04-14T04:00:46.461Z,26.93
2018-04-14T04:03:17.054Z,25.57
2018-04-14T04:05:47.726Z,28.33
2018-04-14T04:08:19.150Z,26.53
2018-04-14T04:10:49.534Z,27.07
2018-04-14T04:13:20.313Z,26.70
2018-04-14T04:15:51.290Z,26.30
2018-04-14T04:18:30.306Z,26.10
2018-04-14T04:24:17.731Z,26.33
2018-04-14T04:26:50.005Z,25.87
2018-04-14T04:29:20.266Z,25.73
2018-04-14T04:31:51.041Z,24.50
2018-04-14T04:34:21.326Z,25.13
2018-04-14T04:36:52.950Z,25.90
2018-04-14T04:39:23.234Z,24.83
2018-04-14T04:41:53.229Z,23.93
2018-04-14T04:44:23.871Z,24.87
2018-04-14T04:46:53.883Z,25.17
2018-04-14T04:49:23.959Z,27.30
2018-04-14T04:51:55.073Z,27.10
2018-04-14T04:54:25.178Z,27.33
2018-04-14T04:56:55.241Z,26.97
2018-04-14T04:59:27.865Z,26.20
2018-04-14T05:01:58.534Z,25.57
2018-04-14T05:04:28.574Z,26.50
2018-04-14T05:06:58.592Z,26.77
2018-04-14T05:09:28.842Z,24.97
2018-04-14T05:11:58.984Z,23.60
2018-04-14T05:14:30.072Z,26.23
2018-04-14T05:17:00.767Z,27.33
2018-04-14T05:19:32.542Z,25.50
2018-04-14T05:22:04.305Z,26.20
2018-04-14T05:24:34.779Z,26.30
2018-04-14T05:27:05.234Z,24.23
2018-04-14T05:29:35.494Z,23.57
2018-04-14T05:32:07.293Z,24.13
2018-04-14T05:34:37.608Z,25.90
2018-04-14T05:37:07.803Z,23.87
2018-04-14T05:39:38.127Z,24.40
2018-04-14T05:42:08.662Z,23.57
2018-04-14T05:44:39.400Z,24.37
2018-04-14T05:47:09.954Z,23.00
2018-04-14T05:49:40.467Z,23.73
2018-04-14T05:52:11.791Z,23.80
2018-04-14T05:54:42.138Z,23.93
2018-04-14T05:57:12.738Z,23.73
2018-04-14T05:59:43.493Z,21.77
2018-04-14T06:02:14.364Z,21.50
2018-04-14T06:04:45.662Z,21.90
2018-04-14T06:07:16.747Z,19.83
2018-04-14T06:10:20.429Z,21.97
2018-04-14T06:13:04.045Z,20.50
2018-04-14T06:15:36.804Z,21.20
2018-04-14T06:18:08.788Z,22.03
2018-04-14T06:20:41.614Z,21.57
2018-04-14T06:23:13.815Z,20.40
2018-04-14T06:25:45.923Z,22.80
2018-04-14T06:28:16.422Z,23.93
2018-04-14T06:30:46.451Z,21.30
2018-04-14T06:33:16.758Z,21.60
2018-04-14T06:35:47.466Z,22.87
2018-04-14T06:38:17.891Z,22.33
2018-04-14T06:40:47.967Z,23.07
2018-04-14T06:43:18.209Z,23.07
2018-04-14T06:45:48.555Z,21.80
2018-04-14T06:48:18.803Z,22.90
2018-04-14T06:50:49.741Z,23.20
2018-04-14T06:53:20.187Z,22.27
2018-04-14T06:55:50.591Z,22.80
2018-04-14T06:58:20.867Z,21.60
2018-04-14T07:00:51.021Z,24.27
2018-04-14T07:03:21.190Z,22.43
2018-04-14T07:05:52.918Z,22.33
2018-04-14T07:08:23.675Z,22.40
2018-04-14T07:10:53.933Z,24.50
2018-04-14T07:13:24.477Z,22.07
2018-04-14T07:15:54.970Z,22.60
2018-04-14T07:18:25.336Z,23.00
2018-04-14T07:20:55.904Z,21.27
2018-04-14T07:23:26.381Z,21.83
2018-04-14T07:25:56.709Z,22.23
2018-04-14T07:28:26.962Z,21.27
2018-04-14T07:30:57.667Z,23.90
2018-04-14T07:33:28.554Z,21.63
2018-04-14T07:35:58.838Z,22.77
2018-04-14T07:38:29.324Z,21.10
2018-04-14T07:41:00.101Z,19.50
2018-04-14T07:43:30.451Z,21.63
2018-04-14T07:46:01.533Z,22.10
2018-04-14T07:48:36.070Z,20.33
2018-04-14T07:51:06.234Z,20.57
2018-04-14T07:53:36.767Z,19.43
2018-04-14T07:56:07.262Z,19.73
2018-04-14T07:58:37.547Z,20.40
2018-04-14T08:01:07.794Z,18.93
2018-04-14T08:03:38.637Z,18.37
2018-04-14T08:06:08.779Z,17.83
2018-04-14T08:08:38.925Z,17.93
2018-04-14T08:11:10.819Z,17.20
2018-04-14T08:13:41.657Z,17.50
2018-04-14T08:16:12.544Z,16.73
2018-04-14T08:18:42.618Z,17.93
2018-04-14T08:21:12.993Z,14.20
2018-04-14T08:23:43.697Z,15.53
2018-04-14T08:26:13.954Z,15.60
2018-04-14T08:28:44.357Z,15.30
2018-04-14T08:31:14.877Z,14.50
2018-04-14T08:33:46.335Z,14.53
2018-04-14T08:36:16.946Z,15.70
2018-04-14T08:38:48.154Z,14.90
2018-04-14T08:41:19.638Z,15.20
2018-04-14T08:43:50.298Z,16.03
2018-04-14T08:46:21.541Z,14.40
2018-04-14T08:48:52.509Z,15.43
2018-04-14T08:51:23.735Z,14.20
2018-04-14T08:53:54.292Z,13.60
2018-04-14T08:56:24.654Z,13.20
2018-04-14T08:58:55.373Z,13.50
2018-04-14T09:01:26.375Z,13.70
2018-04-14T09:03:56.554Z,13.90
2018-04-14T09:06:27.022Z,13.10
2018-04-14T09:08:57.668Z,13.57
2018-04-14T09:11:28.282Z,13.60
2018-04-14T09:13:58.723Z,15.07
2018-04-14T09:16:29.558Z,13.33
2018-04-14T09:19:00.181Z,14.40
2018-04-14T09:21:31.464Z,14.60
2018-04-14T09:24:02.162Z,15.57
2018-04-14T09:26:33.822Z,14.33
2018-04-14T09:29:06.682Z,15.60
2018-04-14T09:31:38.933Z,13.57
2018-04-14T09:34:09.322Z,13.90
2018-04-14T09:36:40.024Z,14.87
2018-04-14T09:39:11.814Z,15.30
2018-04-14T09:41:42.772Z,14.77
2018-04-14T09:44:13.437Z,15.50
2018-04-14T09:46:44.269Z,15.13
2018-04-14T09:49:14.815Z,15.60
2018-04-14T09:51:45.243Z,14.27
2018-04-14T09:54:15.925Z,15.33
2018-04-14T09:56:46.445Z,15.83
2018-04-14T09:59:16.777Z,15.67
2018-04-14T10:01:51.912Z,16.33
2018-04-14T10:04:23.055Z,15.90
2018-04-14T10:06:53.686Z,15.50
2018-04-14T10:09:25.208Z,15.07
2018-04-14T10:11:55.523Z,16.40
2018-04-14T10:14:26.166Z,16.17
2018-04-14T10:16:56.984Z,16.37
2018-04-14T10:19:27.748Z,15.50
2018-04-14T10:22:00.129Z,15.50
2018-04-14T10:24:31.686Z,15.37
2018-04-14T10:27:02.424Z,15.63
2018-04-14T10:29:33.083Z,17.90
2018-04-14T10:32:04.402Z,16.77
2018-04-14T10:34:35.213Z,16.83
2018-04-14T10:37:05.779Z,16.60
2018-04-14T10:39:36.322Z,17.47
2018-04-14T10:42:07.208Z,17.47
2018-04-14T10:44:37.765Z,16.47
2018-04-14T10:47:08.492Z,18.00
2018-04-14T10:49:39.020Z,17.93
2018-04-14T10:52:09.834Z,18.13
2018-04-14T10:54:41.809Z,18.23
2018-04-14T10:57:18.764Z,18.53
2018-04-14T10:59:49.588Z,18.07
2018-04-14T11:02:20.578Z,19.17
2018-04-14T11:04:51.089Z,20.10
2018-04-14T11:07:22.553Z,19.63
2018-04-14T11:09:53.424Z,21.03
2018-04-14T11:12:24.762Z,19.13
2018-04-14T11:14:56.845Z,20.90
2018-04-14T11:17:27.645Z,21.27
2018-04-14T11:19:58.956Z,20.20
2018-04-14T11:22:29.389Z,20.83
2018-04-14T11:25:02.221Z,20.13
2018-04-14T11:27:33.454Z,21.73
2018-04-14T11:30:05.737Z,20.73
2018-04-14T11:32:36.480Z,21.10
2018-04-14T11:35:07.453Z,23.00
2018-04-14T11:37:46.469Z,22.30
2018-04-14T11:40:22.829Z,22.57
2018-04-14T11:42:53.906Z,20.00
2018-04-14T11:45:24.732Z,22.33
2018-04-14T11:47:55.358Z,22.53
2018-04-14T11:50:30.689Z,22.03
2018-04-14T11:53:01.102Z,23.57
2018-04-14T11:55:31.614Z,20.10
2018-04-14T11:58:02.270Z,21.50
2018-04-14T12:00:32.805Z,24.07
2018-04-14T12:03:03.791Z,22.07
2018-04-14T12:05:34.405Z,21.03
2018-04-14T12:08:05.054Z,21.93
2018-04-14T12:10:35.649Z,25.07
2018-04-14T12:13:06.660Z,21.73
2018-04-14T12:15:38.193Z,21.87
2018-04-14T12:18:10.523Z,20.97
2018-04-14T12:20:41.488Z,22.13
2018-04-14T12:23:12.569Z,23.73
2018-04-14T12:25:43.057Z,25.50
2018-04-14T12:28:16.122Z,22.50
2018-04-14T12:30:48.282Z,22.10
2018-04-14T12:33:18.749Z,23.10
2018-04-14T12:35:49.234Z,20.50
2018-04-14T12:38:20.729Z,23.03
2018-04-14T12:40:51.870Z,24.77
2018-04-14T12:43:22.821Z,22.80
2018-04-14T12:45:53.709Z,23.33
2018-04-14T12:48:28.095Z,23.90
2018-04-14T12:50:58.657Z,23.23
2018-04-14T12:53:28.973Z,22.40
2018-04-14T12:56:00.122Z,20.73
2018-04-14T12:58:31.234Z,22.50
2018-04-14T13:01:01.947Z,20.90
2018-04-14T13:03:32.550Z,22.73
2018-04-14T13:06:03.253Z,23.80
2018-04-14T13:08:34.123Z,21.90
2018-04-14T13:11:11.999Z,24.00
2018-04-14T13:13:48.393Z,20.83
2018-04-14T13:16:20.727Z,21.60
2018-04-14T13:18:53.645Z,21.27
2018-04-14T13:21:25.902Z,22.53
2018-04-14T13:24:00.842Z,23.13
2018-04-14T13:26:33.096Z,22.33
2018-04-14T13:29:05.733Z,23.17
2018-04-14T13:31:39.980Z,23.20
2018-04-14T13:34:10.468Z,21.50
2018-04-14T13:36:44.183Z,21.03
2018-04-14T13:39:15.922Z,23.13
2018-04-14T13:41:46.511Z,23.47
2018-04-14T13:44:17.313Z,24.00
2018-04-14T13:46:47.998Z,22.40
2018-04-14T13:49:19.058Z,23.57
2018-04-14T13:51:50.334Z,21.13
2018-04-14T13:54:20.809Z,23.13
2018-04-14T13:56:51.048Z,22.43
2018-04-14T13:59:22.045Z,23.00
2018-04-14T14:01:52.721Z,21.40
2018-04-14T14:04:23.124Z,21.50
2018-04-14T14:06:53.992Z,18.83
2018-04-14T14:09:24.458Z,19.30
2018-04-14T14:11:55.858Z,21.20
2018-04-14T14:14:26.681Z,18.90
2018-04-14T14:16:57.919Z,18.50
2018-04-14T14:19:28.465Z,17.80
2018-04-14T14:21:59.266Z,18.70
2018-04-14T14:24:30.059Z,19.20
2018-04-14T14:27:01.334Z,18.27
2018-04-14T14:29:32.335Z,19.40
2018-04-14T14:32:03.006Z,17.80
2018-04-14T14:34:33.669Z,17.63
2018-04-14T14:37:04.580Z,18.07
2018-04-14T14:39:35.263Z,17.40
2018-04-14T14:42:05.702Z,18.07
2018-04-14T14:44:36.371Z,17.47
2018-04-14T14:47:07.891Z,17.00
2018-04-14T14:49:39.665Z,17.60
2018-04-14T14:52:10.720Z,15.77
2018-04-14T14:54:41.328Z,15.40
2018-04-14T14:57:11.990Z,16.30
2018-04-14T14:59:44.016Z,17.47
2018-04-14T15:02:15.217Z,16.70
2018-04-14T15:04:46.168Z,16.17
2018-04-14T15:07:18.391Z,15.97
2018-04-14T15:09:49.282Z,15.93
2018-04-14T15:12:20.072Z,16.20
2018-04-14T15:14:50.730Z,15.60
2018-04-14T15:17:21.378Z,16.10
2018-04-14T15:19:52.592Z,16.87
2018-04-14T15:22:24.323Z,17.17
2018-04-14T15:24:54.729Z,16.37
2018-04-14T15:27:25.313Z,16.63
2018-04-14T15:29:55.884Z,17.40
2018-04-14T15:32:26.906Z,15.30
2018-04-14T15:34:57.420Z,17.60
2018-04-14T15:37:28.401Z,15.90
2018-04-14T15:39:59.010Z,17.30
2018-04-14T15:42:29.814Z,16.47
2018-04-14T15:45:00.340Z,16.63
2018-04-14T15:47:31.989Z,16.20
2018-04-14T15:50:02.561Z,17.07
2018-04-14T15:52:33.475Z,16.60
2018-04-14T15:55:04.060Z,16.87
2018-04-14T15:57:34.475Z,16.20
2018-04-14T16:00:05.322Z,17.23
2018-04-14T16:02:36.258Z,16.90
2018-04-14T16:05:07.488Z,16.97
2018-04-14T16:07:37.955Z,15.73
2018-04-14T16:10:08.640Z,17.57
2018-04-14T16:12:41.322Z,17.50
2018-04-14T16:15:11.725Z,16.20
2018-04-14T16:17:42.258Z,15.53
2018-04-14T16:20:13.570Z,15.60
2018-04-14T16:22:44.353Z,18.00
2018-04-14T16:25:15.054Z,17.07
2018-04-14T16:27:47.622Z,17.47
2018-04-14T16:30:18.243Z,15.40
2018-04-14T16:32:48.933Z,16.73
2018-04-14T16:35:19.898Z,16.63
2018-04-14T16:37:51.674Z,17.40
2018-04-14T16:40:22.028Z,17.33
2018-04-14T16:42:52.679Z,17.27
2018-04-14T16:45:23.611Z,16.40
2018-04-14T16:47:53.994Z,15.90
2018-04-14T16:50:24.510Z,16.53
2018-04-14T16:52:54.830Z,17.00
2018-04-14T16:55:25.370Z,17.90
2018-04-14T16:57:56.329Z,17.20
2018-04-14T17:00:30.113Z,15.50
2018-04-14T17:03:01.304Z,16.10
2018-04-14T17:05:32.231Z,16.37
2018-04-14T17:08:02.564Z,15.37
2018-04-14T17:10:33.359Z,14.77
2018-04-14T17:13:05.012Z,14.67
2018-04-14T17:15:36.161Z,15.00
2018-04-14T17:18:07.533Z,15.43
2018-04-14T17:20:38.647Z,16.53
2018-04-14T17:23:09.040Z,14.43
2018-04-14T17:25:40.060Z,14.63
2018-04-14T17:28:10.800Z,15.93
2018-04-14T17:30:41.239Z,15.00
2018-04-14T17:33:11.929Z,14.57
2018-04-14T17:35:42.363Z,14.70
2018-04-14T17:38:13.071Z,14.37
2018-04-14T17:40:45.433Z,15.50
2018-04-14T17:43:15.961Z,14.27
2018-04-14T17:45:46.583Z,14.73
2018-04-14T17:48:17.011Z,14.60
2018-04-14T17:50:47.819Z,13.57
2018-04-14T17:53:18.125Z,14.50
2018-04-14T17:55:49.137Z,13.67
2018-04-14T17:58:19.705Z,16.70
2018-04-14T18:00:51.523Z,15.97
2018-04-14T18:03:22.342Z,15.90
2018-04-14T18:05:53.264Z,14.13
2018-04-14T18:08:24.087Z,17.07
2018-04-14T18:10:54.593Z,16.40
2018-04-14T18:13:25.528Z,16.13
2018-04-14T18:15:56.113Z,20.20
2018-04-14T18:18:26.588Z,20.30
2018-04-14T18:20:56.882Z,20.00
2018-04-14T18:23:27.510Z,18.20
2018-04-14T18:25:58.826Z,22.43
2018-04-14T18:28:31.686Z,29.30
2018-04-14T18:31:01.986Z,29.90
2018-04-14T18:33:32.603Z,26.77
2018-04-14T18:36:03.256Z,27.83
2018-04-14T18:38:33.827Z,33.50
2018-04-14T18:41:04.362Z,24.87
2018-04-14T18:43:35.137Z,21.33
2018-04-14T18:46:05.614Z,19.80
2018-04-14T18:48:36.064Z,18.13
2018-04-14T18:51:06.474Z,18.30
2018-04-14T18:53:37.142Z,17.87
2018-04-14T18:56:08.647Z,16.70
2018-04-14T18:58:39.157Z,22.30
2018-04-14T19:01:09.546Z,19.43
2018-04-14T19:03:40.506Z,23.17
2018-04-14T19:06:13.041Z,23.97
2018-04-14T19:08:44.308Z,21.03
2018-04-14T19:11:14.712Z,21.83
2018-04-14T19:13:45.369Z,21.23
2018-04-14T19:16:16.250Z,19.87
2018-04-14T19:18:46.746Z,18.63
2018-04-14T19:21:18.046Z,19.47
2018-04-14T19:23:48.899Z,20.83
2018-04-14T19:26:19.795Z,18.17
2018-04-14T19:28:51.910Z,19.17
2018-04-14T19:31:22.753Z,20.00
2018-04-14T19:33:53.589Z,18.87
2018-04-14T19:36:24.133Z,19.57
2018-04-14T19:38:54.841Z,21.77
2018-04-14T19:41:25.915Z,20.10
2018-04-14T19:43:56.563Z,19.97
2018-04-14T19:46:27.162Z,19.90
2018-04-14T19:48:57.503Z,19.40
2018-04-14T19:51:28.048Z,20.00
2018-04-14T19:53:58.590Z,18.47
2018-04-14T19:56:29.690Z,19.30
2018-04-14T19:59:01.513Z,18.90
2018-04-14T20:01:31.917Z,19.53
2018-04-14T20:04:02.359Z,18.20
2018-04-14T20:06:33.019Z,18.37
2018-04-14T20:09:03.801Z,20.47
2018-04-14T20:11:34.513Z,17.80
2018-04-14T20:14:05.604Z,17.77
2018-04-14T20:16:36.138Z,16.73
2018-04-14T20:19:07.153Z,18.60
2018-04-14T20:21:38.339Z,17.53
2018-04-14T20:24:08.973Z,17.80
2018-04-14T20:26:39.473Z,16.37
2018-04-14T20:29:10.489Z,18.93
2018-04-14T20:31:41.112Z,19.67
2018-04-14T20:34:11.715Z,21.23
2018-04-14T20:36:42.486Z,19.27
2018-04-14T20:39:13.162Z,19.47
2018-04-14T20:41:43.698Z,20.07
2018-04-14T20:44:14.167Z,18.57
2018-04-14T20:46:45.403Z,19.10
2018-04-14T20:49:31.785Z,20.60
2018-04-14T20:52:02.991Z,19.13
2018-04-14T20:54:34.007Z,17.70
2018-04-14T20:57:05.212Z,18.50
2018-04-14T20:59:35.680Z,16.87
2018-04-14T21:02:06.076Z,17.47
2018-04-14T21:04:37.448Z,17.10
2018-04-14T21:07:08.336Z,18.33
2018-04-14T21:09:38.933Z,17.70
2018-04-14T21:12:09.298Z,19.50
2018-04-14T21:14:40.450Z,18.30
2018-04-14T21:17:11.218Z,18.73
2018-04-14T21:19:42.122Z,19.40
2018-04-14T21:22:12.593Z,17.33
2018-04-14T21:24:43.834Z,18.20
2018-04-14T21:27:14.409Z,18.63
2018-04-14T21:29:45.412Z,20.40
2018-04-14T21:32:15.766Z,19.70
2018-04-14T21:34:46.174Z,20.97
2018-04-14T21:37:16.633Z,20.80
2018-04-14T21:39:47.307Z,21.33
2018-04-14T21:42:18.310Z,20.30
2018-04-14T21:44:48.741Z,18.47
2018-04-14T21:47:19.145Z,20.30
2018-04-14T21:49:49.879Z,18.73
2018-04-14T21:52:20.638Z,17.47
2018-04-14T21:54:51.203Z,18.00
2018-04-14T21:57:22.417Z,17.80
2018-04-14T21:59:53.966Z,17.00
2018-04-14T22:02:24.398Z,18.33
2018-04-14T22:04:55.261Z,21.03
2018-04-14T22:07:26.414Z,19.37
2018-04-14T22:09:57.112Z,18.90
2018-04-14T22:12:28.301Z,17.77
2018-04-14T22:14:59.366Z,19.43
2018-04-14T22:17:30.117Z,17.40
2018-04-14T22:20:01.741Z,17.60
2018-04-14T22:22:32.510Z,17.17
2018-04-14T22:25:03.638Z,21.00
2018-04-14T22:27:33.986Z,20.00
2018-04-14T22:30:04.746Z,19.30
2018-04-14T22:32:35.236Z,17.30
2018-04-14T22:35:05.857Z,19.50
2018-04-14T22:37:36.272Z,18.43
2018-04-14T22:40:06.505Z,19.03
2018-04-14T22:42:37.522Z,18.60
2018-04-14T22:45:07.935Z,19.20
2018-04-14T22:47:39.875Z,17.30
2018-04-14T22:50:10.538Z,19.00
2018-04-14T22:52:41.002Z,19.07
2018-04-14T22:55:11.379Z,17.40
2018-04-14T22:57:41.766Z,16.27
2018-04-14T23:00:13.761Z,18.67
2018-04-14T23:02:44.276Z,17.37
2018-04-14T23:05:15.230Z,16.70
2018-04-14T23:07:45.808Z,17.10
2018-04-14T23:10:16.183Z,19.47
2018-04-14T23:12:46.989Z,18.27
2018-04-14T23:15:17.773Z,17.10
2018-04-14T23:17:48.279Z,17.63
2018-04-14T23:20:19.597Z,18.00
2018-04-14T23:22:50.163Z,16.97
2018-04-14T23:25:20.777Z,15.57
2018-04-14T23:27:51.453Z,17.70
2018-04-14T23:30:22.840Z,18.20
2018-04-14T23:32:53.764Z,17.23
2018-04-14T23:35:24.464Z,18.37
2018-04-14T23:37:54.734Z,18.50
2018-04-14T23:40:25.257Z,18.67
2018-04-14T23:42:55.964Z,18.90
2018-04-14T23:45:26.535Z,19.10
2018-04-14T23:47:56.931Z,18.90
2018-04-14T23:50:27.621Z,19.37
2018-04-14T23:52:58.189Z,20.20
2018-04-14T23:55:29.446Z,16.80
2018-04-14T23:58:00.438Z,18.40
